createdAt,value
2018-11-20T00:03:25.249Z,72.02
2018-11-20T00:06:17.235Z,71.68
2018-11-20T00:10:54.855Z,70.80
2018-11-20T00:13:28.180Z,72.29
2018-11-20T00:16:02.975Z,71.03
2018-11-20T00:18:44.539Z,70.93
2018-11-20T00:22:17.911Z,70.31
2018-11-20T00:24:52.334Z,70.96
2018-11-20T00:27:28.814Z,71.82
2018-11-20T00:31:01.356Z,70.80
2018-11-20T00:33:35.058Z,71.46
2018-11-20T00:37:08.872Z,70.98
2018-11-20T00:40:17.796Z,71.66
2018-11-20T00:42:56.623Z,71.35
2018-11-20T00:45:30.369Z,71.01
2018-11-20T00:49:07.295Z,70.83
2018-11-20T00:51:39.903Z,71.58
2018-11-20T00:54:48.776Z,70.95
2018-11-20T00:57:25.886Z,70.68
2018-11-20T01:00:04.538Z,70.79
2018-11-20T01:02:54.285Z,71.01
2018-11-20T01:07:33.183Z,70.20
2018-11-20T01:12:13.230Z,71.22
2018-11-20T01:14:46.996Z,70.97
2018-11-20T01:17:20.631Z,71.37
2018-11-20T01:19:57.100Z,70.75
2018-11-20T01:23:30.761Z,71.28
2018-11-20T01:26:10.963Z,71.17
2018-11-20T01:28:45.179Z,71.14
2018-11-20T01:31:18.667Z,71.03
2018-11-20T01:35:54.610Z,70.31
2018-11-20T01:38:28.119Z,70.23
2018-11-20T01:43:08.924Z,70.55
2018-11-20T01:45:49.683Z,71.48
2018-11-20T01:48:23.207Z,70.83
2018-11-20T01:50:56.853Z,71.14
2018-11-20T01:55:35.128Z,70.06
2018-11-20T01:58:18.844Z,70.24
2018-11-20T02:00:52.605Z,70.47
2018-11-20T02:05:34.027Z,70.68
2018-11-20T02:09:11.634Z,70.23
2018-11-20T02:11:48.330Z,70.21
2018-11-20T02:16:31.894Z,70.23
2018-11-20T02:21:08.032Z,71.37
2018-11-20T02:24:40.316Z,70.35
2018-11-20T02:27:18.275Z,71.02
2018-11-20T02:31:58.443Z,70.45
2018-11-20T02:34:31.925Z,70.54
2018-11-20T02:37:21.252Z,70.28
2018-11-20T02:41:57.729Z,71.02
2018-11-20T02:45:02.656Z,70.81
2018-11-20T02:47:42.730Z,71.28
2018-11-20T02:50:18.261Z,70.26
2018-11-20T02:52:50.841Z,69.97
2018-11-20T02:55:24.609Z,70.21
2018-11-20T02:58:02.254Z,69.93
2018-11-20T03:00:37.684Z,70.06
2018-11-20T03:03:13.536Z,69.80
2018-11-20T03:07:53.068Z,69.66
2018-11-20T03:10:29.573Z,71.00
2018-11-20T03:13:10.108Z,70.90
2018-11-20T03:15:43.761Z,71.01
2018-11-20T03:19:21.511Z,71.04
2018-11-20T03:22:55.768Z,70.94
2018-11-20T03:26:39.493Z,70.75
2018-11-20T03:29:19.324Z,70.67
2018-11-20T03:32:08.985Z,70.85
2018-11-20T03:34:41.573Z,70.72
2018-11-20T03:39:20.928Z,70.42
2018-11-20T03:42:06.252Z,70.72
2018-11-20T03:46:45.758Z,71.53
2018-11-20T03:49:19.756Z,71.22
2018-11-20T03:53:58.554Z,70.95
2018-11-20T03:56:32.311Z,71.82
2018-11-20T03:59:06.040Z,71.01
2018-11-20T04:01:40.245Z,71.41
2018-11-20T04:05:11.607Z,70.98
2018-11-20T04:07:45.368Z,71.54
2018-11-20T04:10:24.046Z,71.29
2018-11-20T04:13:04.532Z,72.00
2018-11-20T04:15:38.483Z,72.30
2018-11-20T04:22:26.066Z,71.79
2018-11-20T04:25:04.535Z,71.72
2018-11-20T04:27:37.145Z,72.10
2018-11-20T04:32:56.985Z,72.25
2018-11-20T04:35:32.680Z,72.48
2018-11-20T04:38:11.556Z,72.05
2018-11-20T04:42:48.350Z,71.86
2018-11-20T04:47:26.647Z,72.56
2018-11-20T04:50:01.897Z,72.31
2018-11-20T04:52:39.400Z,72.48
2018-11-20T04:55:13.279Z,71.82
2018-11-20T04:57:52.284Z,71.81
2018-11-20T05:00:26.087Z,73.25
2018-11-20T05:03:14.750Z,72.50
2018-11-20T05:05:48.529Z,72.91
2018-11-20T05:10:24.980Z,72.53
2018-11-20T05:15:02.407Z,73.18
2018-11-20T05:17:38.880Z,73.02
2018-11-20T05:20:15.456Z,73.36
2018-11-20T05:22:49.141Z,72.85
2018-11-20T05:25:23.835Z,72.51
2018-11-20T05:27:59.446Z,72.33
2018-11-20T05:30:33.043Z,72.15
2018-11-20T05:33:07.376Z,71.50
2018-11-20T05:35:56.472Z,71.95
2018-11-20T05:38:30.083Z,72.25
2018-11-20T05:41:03.580Z,72.25
2018-11-20T05:43:39.163Z,71.79
2018-11-20T05:46:17.629Z,71.27
2018-11-20T05:48:53.352Z,72.26
2018-11-20T05:51:28.912Z,71.59
2018-11-20T05:56:06.203Z,71.38
2018-11-20T06:02:53.743Z,72.02
2018-11-20T06:06:26.037Z,72.85
2018-11-20T06:09:00.229Z,72.41
2018-11-20T06:11:33.903Z,72.73
2018-11-20T06:14:43.685Z,72.08
2018-11-20T06:17:18.332Z,72.44
2018-11-20T06:19:51.893Z,72.63
2018-11-20T06:22:30.496Z,72.32
2018-11-20T06:25:04.393Z,71.58
2018-11-20T06:27:38.328Z,71.58
2018-11-20T06:31:11.339Z,72.14
2018-11-20T06:33:45.752Z,71.70
2018-11-20T06:36:27.264Z,71.31
2018-11-20T06:40:01.669Z,71.72
2018-11-20T06:42:35.376Z,71.62
2018-11-20T06:45:09.191Z,71.25
2018-11-20T06:47:48.732Z,71.22
2018-11-20T06:50:31.483Z,71.10
2018-11-20T06:53:05.448Z,70.65
2018-11-20T06:55:39.820Z,71.13
2018-11-20T06:58:17.330Z,70.41
2018-11-20T07:00:54.984Z,70.83
2018-11-20T07:03:33.488Z,71.67
2018-11-20T07:06:07.281Z,71.73
2018-11-20T07:08:56.915Z,70.71
2018-11-20T07:12:31.240Z,70.70
2018-11-20T07:15:19.844Z,71.29
2018-11-20T07:19:58.406Z,70.98
2018-11-20T07:22:32.169Z,72.08
2018-11-20T07:25:05.895Z,71.67
2018-11-20T07:27:40.466Z,71.40
2018-11-20T07:30:15.964Z,71.21
2018-11-20T07:32:51.636Z,71.78
2018-11-20T07:35:26.957Z,70.74
2018-11-20T07:40:03.999Z,71.65
2018-11-20T07:43:08.785Z,71.02
2018-11-20T07:47:47.534Z,71.65
2018-11-20T07:50:26.510Z,71.42
2018-11-20T07:53:00.363Z,71.39
2018-11-20T07:55:41.864Z,71.10
2018-11-20T07:58:15.797Z,71.43
2018-11-20T08:00:49.576Z,70.88
2018-11-20T08:04:26.898Z,70.31
2018-11-20T08:07:06.424Z,71.51
2018-11-20T08:09:40.885Z,71.69
2018-11-20T08:12:17.368Z,70.54
2018-11-20T08:16:53.701Z,70.53
2018-11-20T08:20:33.422Z,71.08
2018-11-20T08:23:06.959Z,71.29
2018-11-20T08:25:46.644Z,70.76
2018-11-20T08:28:58.939Z,70.91
2018-11-20T08:31:32.682Z,70.34
2018-11-20T08:34:55.016Z,70.18
2018-11-20T08:37:41.308Z,69.57
2018-11-20T08:40:37.687Z,70.13
2018-11-20T08:43:23.152Z,70.00
2018-11-20T08:46:16.589Z,69.43
2018-11-20T08:49:01.577Z,70.08
2018-11-20T08:51:47.754Z,70.28
2018-11-20T08:54:41.117Z,69.26
2018-11-20T08:57:28.659Z,69.63
2018-11-20T09:00:34.395Z,69.50
2018-11-20T09:03:37.119Z,69.50
2018-11-20T09:06:30.599Z,69.10
2018-11-20T09:09:10.640Z,69.71
2018-11-20T09:12:16.235Z,68.65
2018-11-20T09:15:19.040Z,70.06
2018-11-20T09:18:21.844Z,68.75
2018-11-20T09:21:27.667Z,68.53
2018-11-20T09:24:14.261Z,68.67
2018-11-20T09:27:00.639Z,68.37
2018-11-20T09:30:00.897Z,68.55
2018-11-20T09:32:48.421Z,68.09
2018-11-20T09:35:54.283Z,68.98
2018-11-20T09:38:44.091Z,68.28
2018-11-20T09:41:40.721Z,68.55
2018-11-20T09:44:46.393Z,68.67
2018-11-20T09:47:43.033Z,68.70
2018-11-20T09:50:43.879Z,68.80
2018-11-20T09:53:43.856Z,69.09
2018-11-20T09:56:31.580Z,68.94
2018-11-20T09:59:39.225Z,68.02
2018-11-20T10:02:29.537Z,68.14
2018-11-20T10:05:35.117Z,68.37
2018-11-20T10:08:31.631Z,68.69
2018-11-20T10:11:19.160Z,68.73
2018-11-20T10:14:05.117Z,69.09
2018-11-20T10:16:51.384Z,68.48
2018-11-20T10:19:44.721Z,67.75
2018-11-20T10:22:36.845Z,67.58
2018-11-20T10:25:22.829Z,68.03
2018-11-20T10:28:08.973Z,68.20
2018-11-20T10:31:02.217Z,68.17
2018-11-20T10:33:48.419Z,68.26
2018-11-20T10:36:42.223Z,67.79
2018-11-20T10:39:28.712Z,69.14
2018-11-20T10:42:19.095Z,68.88
2018-11-20T10:45:05.311Z,68.38
2018-11-20T10:47:51.451Z,67.70
2018-11-20T10:50:38.491Z,68.36
2018-11-20T10:53:40.919Z,68.47
2018-11-20T10:56:28.676Z,68.21
2018-11-20T10:59:34.598Z,68.41
2018-11-20T11:02:20.857Z,67.78
2018-11-20T11:05:07.421Z,68.13
2018-11-20T11:07:53.632Z,67.83
2018-11-20T11:10:40.516Z,67.88
2018-11-20T11:13:31.025Z,67.93
2018-11-20T11:16:17.425Z,68.42
2018-11-20T11:19:07.918Z,67.56
2018-11-20T11:21:56.622Z,65.95
2018-11-20T11:24:49.542Z,66.65
2018-11-20T11:27:35.901Z,66.99
2018-11-20T11:30:22.478Z,67.03
2018-11-20T11:33:08.489Z,66.85
2018-11-20T11:35:51.362Z,66.64
2018-11-20T11:38:44.581Z,67.96
2018-11-20T11:41:38.061Z,67.48
2018-11-20T11:44:24.498Z,67.50
2018-11-20T11:47:14.645Z,67.45
2018-11-20T11:50:16.361Z,67.19
2018-11-20T11:53:03.932Z,66.92
2018-11-20T11:55:54.327Z,66.87
2018-11-20T11:58:43.405Z,68.24
2018-11-20T12:04:23.385Z,66.20
2018-11-20T12:07:22.693Z,66.77
2018-11-20T12:10:16.203Z,66.13
2018-11-20T12:16:11.697Z,66.58
2018-11-20T12:19:11.455Z,66.08
2018-11-20T12:22:08.069Z,66.26
2018-11-20T12:24:54.110Z,65.83
2018-11-20T12:27:47.972Z,66.24
2018-11-20T12:30:38.717Z,67.69
2018-11-20T12:33:32.247Z,66.78
2018-11-20T12:36:19.793Z,67.40
2018-11-20T12:39:00.310Z,68.38
2018-11-20T12:41:47.545Z,67.76
2018-11-20T12:44:33.508Z,67.00
2018-11-20T12:47:24.588Z,66.14
2018-11-20T12:50:12.241Z,67.75
2018-11-20T12:53:00.439Z,67.68
2018-11-20T12:55:46.261Z,66.99
2018-11-20T12:58:42.035Z,67.68
2018-11-20T13:01:24.890Z,68.03
2018-11-20T13:04:10.651Z,67.74
2018-11-20T13:07:00.653Z,67.20
2018-11-20T13:09:45.943Z,68.02
2018-11-20T13:12:50.872Z,68.62
2018-11-20T13:15:41.090Z,68.21
2018-11-20T13:18:31.436Z,66.49
2018-11-20T13:21:22.082Z,67.80
2018-11-20T13:24:18.996Z,67.18
2018-11-20T13:27:11.377Z,67.45
2018-11-20T13:30:07.731Z,67.64
2018-11-20T13:33:10.393Z,67.56
2018-11-20T13:35:51.067Z,67.92
2018-11-20T13:38:31.333Z,67.82
2018-11-20T13:41:42.582Z,68.52
2018-11-20T13:44:34.243Z,68.48
2018-11-20T13:47:27.567Z,68.41
2018-11-20T13:50:33.614Z,67.50
2018-11-20T13:53:22.207Z,68.42
2018-11-20T13:56:08.640Z,68.26
2018-11-20T13:58:54.949Z,69.34
2018-11-20T14:01:42.667Z,69.20
2018-11-20T14:04:29.408Z,69.40
2018-11-20T14:07:15.662Z,68.82
2018-11-20T14:09:57.277Z,68.99
2018-11-20T14:12:45.502Z,68.86
2018-11-20T14:15:31.997Z,69.00
2018-11-20T14:18:28.523Z,69.00
2018-11-20T14:21:22.190Z,69.57
2018-11-20T14:24:09.697Z,69.32
2018-11-20T14:26:57.365Z,68.27
2018-11-20T14:29:48.867Z,68.83
2018-11-20T14:32:37.409Z,69.47
2018-11-20T14:35:37.479Z,69.24
2018-11-20T14:38:28.297Z,69.63
2018-11-20T14:41:14.352Z,69.83
2018-11-20T14:44:00.443Z,69.94
2018-11-20T14:46:46.434Z,70.08
2018-11-20T14:49:33.931Z,71.55
2018-11-20T14:52:33.994Z,71.10
2018-11-20T14:55:20.244Z,71.14
2018-11-20T14:58:23.063Z,71.99
2018-11-20T15:01:16.267Z,72.43
2018-11-20T15:04:02.647Z,72.75
2018-11-20T15:06:48.669Z,73.19
2018-11-20T15:09:38.750Z,73.79
2018-11-20T15:12:24.761Z,74.00
2018-11-20T15:15:10.902Z,74.15
2018-11-20T15:18:01.267Z,74.45
2018-11-20T15:20:48.771Z,74.34
2018-11-20T15:23:45.480Z,74.86
2018-11-20T15:26:31.813Z,74.86
2018-11-20T15:29:27.438Z,75.66
2018-11-20T15:32:12.906Z,75.42
2018-11-20T15:35:02.565Z,74.91
2018-11-20T15:37:48.636Z,75.37
2018-11-20T15:40:44.272Z,75.76
2018-11-20T15:43:26.234Z,75.46
2018-11-20T15:46:14.640Z,75.35
2018-11-20T15:49:05.469Z,75.43
2018-11-20T15:51:58.829Z,75.58
2018-11-20T15:54:40.755Z,75.61
2018-11-20T15:57:27.271Z,76.51
2018-11-20T16:00:14.917Z,76.77
2018-11-20T16:03:01.574Z,77.41
2018-11-20T16:05:52.247Z,77.46
2018-11-20T16:08:50.165Z,77.00
2018-11-20T16:11:37.727Z,77.12
2018-11-20T16:14:40.656Z,76.92
2018-11-20T16:17:46.152Z,77.54
2018-11-20T16:20:41.828Z,76.94
2018-11-20T16:23:28.151Z,77.50
2018-11-20T16:26:21.475Z,77.49
2018-11-20T16:29:07.625Z,77.46
2018-11-20T16:31:53.963Z,78.17
2018-11-20T16:34:40.223Z,78.39
2018-11-20T16:37:29.758Z,79.09
2018-11-20T16:40:16.028Z,78.79
2018-11-20T16:43:06.249Z,79.30
2018-11-20T16:45:55.052Z,79.56
2018-11-20T16:48:42.598Z,80.16
2018-11-20T16:51:30.219Z,79.63
2018-11-20T16:54:24.441Z,80.83
2018-11-20T16:57:10.884Z,80.86
2018-11-20T17:00:07.563Z,79.28
2018-11-20T17:02:54.042Z,79.23
2018-11-20T17:05:54.141Z,80.41
2018-11-20T17:08:53.803Z,81.27
2018-11-20T17:11:40.201Z,81.96
2018-11-20T17:14:37.103Z,82.32
2018-11-20T17:17:26.536Z,82.06
2018-11-20T17:20:17.076Z,81.91
2018-11-20T17:23:02.912Z,81.50
2018-11-20T17:26:02.544Z,82.01
2018-11-20T17:28:48.921Z,82.21
2018-11-20T17:31:35.222Z,81.62
2018-11-20T17:34:25.827Z,82.71
2018-11-20T17:37:25.696Z,82.82
2018-11-20T17:40:13.170Z,82.09
2018-11-20T17:43:03.486Z,82.85
2018-11-20T17:45:50.012Z,82.68
2018-11-20T17:48:42.808Z,82.86
2018-11-20T17:51:28.690Z,82.41
2018-11-20T17:54:16.259Z,81.79
2018-11-20T17:57:02.272Z,82.34
2018-11-20T17:59:58.564Z,82.52
2018-11-20T18:02:44.955Z,82.99
2018-11-20T18:05:35.301Z,82.37
2018-11-20T18:08:21.388Z,82.52
2018-11-20T18:11:03.619Z,82.70
2018-11-20T18:13:54.063Z,82.64
2018-11-20T18:16:32.811Z,82.68
2018-11-20T18:19:13.923Z,82.80
2018-11-20T18:22:13.709Z,83.43
2018-11-20T18:25:01.197Z,83.19
2018-11-20T18:27:51.669Z,82.89
2018-11-20T18:30:51.189Z,83.09
2018-11-20T18:33:44.555Z,82.79
2018-11-20T18:36:34.841Z,82.72
2018-11-20T18:39:20.954Z,84.03
2018-11-20T18:42:07.469Z,82.66
2018-11-20T18:45:00.050Z,83.07
2018-11-20T18:47:50.753Z,83.41
2018-11-20T18:50:30.030Z,83.59
2018-11-20T18:53:07.625Z,83.16
2018-11-20T18:55:59.082Z,82.91
2018-11-20T18:58:45.108Z,83.89
2018-11-20T19:01:32.615Z,83.62
2018-11-20T19:04:19.145Z,82.72
2018-11-20T19:07:12.505Z,82.76
2018-11-20T19:09:53.241Z,82.75
2018-11-20T19:12:46.861Z,82.62
2018-11-20T19:15:46.173Z,82.26
2018-11-20T19:18:33.179Z,81.92
2018-11-20T19:21:26.291Z,81.43
2018-11-20T19:24:28.665Z,82.54
2018-11-20T19:27:28.153Z,81.88
2018-11-20T19:30:15.699Z,81.92
2018-11-20T19:33:01.717Z,82.23
2018-11-20T19:35:47.806Z,81.77
2018-11-20T19:38:47.412Z,82.21
2018-11-20T19:41:33.486Z,82.47
2018-11-20T19:44:21.640Z,82.58
2018-11-20T19:47:11.610Z,81.42
2018-11-20T19:49:59.139Z,81.74
2018-11-20T19:52:52.373Z,82.12
2018-11-20T19:55:45.947Z,82.50
2018-11-20T19:58:32.068Z,81.32
2018-11-20T20:01:20.370Z,81.75
2018-11-20T20:04:13.196Z,81.93
2018-11-20T20:07:15.923Z,81.62
2018-11-20T20:10:01.949Z,82.56
2018-11-20T20:13:07.602Z,81.29
2018-11-20T20:15:50.919Z,81.98
2018-11-20T20:18:56.593Z,82.71
2018-11-20T20:21:42.821Z,82.40
2018-11-20T20:24:33.196Z,82.00
2018-11-20T20:27:19.184Z,81.11
2018-11-20T20:30:15.579Z,80.87
2018-11-20T20:33:02.065Z,81.32
2018-11-20T20:35:47.993Z,82.09
2018-11-20T20:38:34.442Z,82.00
2018-11-20T20:41:22.091Z,81.60
2018-11-20T20:44:12.423Z,80.77
2018-11-20T20:47:17.816Z,81.13
2018-11-20T20:50:03.971Z,81.20
2018-11-20T20:52:57.493Z,82.40
2018-11-20T20:55:56.927Z,82.43
2018-11-20T20:58:47.803Z,83.29
2018-11-20T21:01:33.002Z,82.92
2018-11-20T21:04:10.238Z,82.32
2018-11-20T21:07:06.840Z,81.67
2018-11-20T21:09:50.453Z,82.22
2018-11-20T21:12:36.525Z,81.79
2018-11-20T21:15:23.433Z,82.53
2018-11-20T21:18:22.685Z,82.52
2018-11-20T21:21:15.456Z,82.60
2018-11-20T21:24:00.644Z,82.45
2018-11-20T21:26:47.070Z,82.86
2018-11-20T21:29:33.762Z,83.03
2018-11-20T21:32:23.964Z,82.63
2018-11-20T21:35:10.041Z,83.33
2018-11-20T21:38:06.424Z,82.95
2018-11-20T21:40:52.821Z,82.68
2018-11-20T21:43:35.905Z,82.29
2018-11-20T21:46:22.005Z,82.31
2018-11-20T21:49:18.313Z,82.48
2018-11-20T21:52:02.593Z,82.56
2018-11-20T21:54:41.412Z,82.68
2018-11-20T21:57:27.416Z,83.17
2018-11-20T22:00:16.046Z,83.33
2018-11-20T22:03:09.662Z,82.92
2018-11-20T22:06:10.700Z,83.26
2018-11-20T22:09:10.048Z,83.32
2018-11-20T22:11:56.242Z,83.54
2018-11-20T22:14:52.464Z,82.88
2018-11-20T22:17:42.866Z,83.52
2018-11-20T22:20:35.473Z,83.85
2018-11-20T22:23:28.804Z,83.99
2018-11-20T22:26:21.426Z,84.66
2018-11-20T22:29:01.767Z,84.06
2018-11-20T22:31:55.249Z,83.82
2018-11-20T22:34:41.578Z,83.55
2018-11-20T22:37:39.015Z,83.71
2018-11-20T22:40:32.501Z,83.55
2018-11-20T22:43:18.598Z,83.87
2018-11-20T22:46:04.711Z,84.35
2018-11-20T22:48:55.025Z,84.27
2018-11-20T22:51:41.201Z,84.83
2018-11-20T22:54:27.584Z,85.02
2018-11-20T22:57:27.100Z,84.20
2018-11-20T23:00:13.278Z,84.49
2018-11-20T23:02:57.035Z,85.53
2018-11-20T23:05:39.166Z,85.49
2018-11-20T23:08:07.886Z,86.34
2018-11-20T23:10:36.333Z,86.31
2018-11-20T23:13:05.000Z,85.72
2018-11-20T23:15:33.530Z,85.55
2018-11-20T23:18:02.119Z,85.81
2018-11-20T23:20:30.592Z,85.51
2018-11-20T23:23:01.213Z,86.24
2018-11-20T23:25:30.784Z,86.31
2018-11-20T23:28:01.518Z,85.63
2018-11-20T23:30:29.995Z,85.44
2018-11-20T23:32:58.482Z,85.60
2018-11-20T23:35:29.315Z,85.18
2018-11-20T23:37:57.749Z,84.16
2018-11-20T23:40:28.750Z,84.50
2018-11-20T23:42:57.305Z,84.46
2018-11-20T23:45:25.680Z,84.49
2018-11-20T23:47:54.160Z,84.30
2018-11-20T23:50:23.687Z,84.85
2018-11-20T23:52:52.163Z,84.56
2018-11-20T23:55:20.588Z,84.62
2018-11-20T23:57:49.044Z,84.89
